Time;durP1;ratioP1;P1;durP2;ratioP2;P2;SDS_P1;SDS_P2;PMS_P1;PMS_P2;Temp;Humidity;BMP_temperature;BMP_pressure;BME280_temperature;BME280_humidity;BME280_pressure;Samples;Min_cycle;Max_cycle;Signal;HPM_P1;HPM_P2
2023/05/31 00:00:43;;;;;;;7.85;4.72;;;;;;;-143.21;75.83;71895.69;4970767;28;20205;-75
2023/05/31 00:03:10;;;;;;;7.15;4.57;;;;;;;-143.21;75.68;71895.69;4971434;28;20201;-76
2023/05/31 00:05:37;;;;;;;6.43;5.03;;;;;;;-143.21;75.88;71893.72;4971138;28;20235;-76
2023/05/31 00:08:04;;;;;;;9.68;4.88;;;;;;;-143.21;76.10;71887.78;4971303;28;20205;-76
2023/05/31 00:10:31;;;;;;;10.02;5.15;;;;;;;-143.21;75.90;71883.81;4971014;28;20200;-76
2023/05/31 00:12:58;;;;;;;9.77;6.07;;;;;;;-143.21;76.26;71881.81;4970602;28;20275;-76
2023/05/31 00:15:26;;;;;;;19.92;12.35;;;;;;;-143.21;76.01;71883.81;4971392;28;20292;-77
2023/05/31 00:17:53;;;;;;;21.20;13.73;;;;;;;-143.21;75.88;71881.81;4971178;28;20208;-77
2023/05/31 00:20:20;;;;;;;19.10;9.90;;;;;;;-143.21;75.93;71883.81;4974520;28;20204;-76
2023/05/31 00:22:47;;;;;;;14.65;8.70;;;;;;;-143.21;76.15;71883.81;4975277;28;20205;-76
2023/05/31 00:25:14;;;;;;;14.45;9.63;;;;;;;-143.21;76.39;71877.84;4974959;28;20228;-76
2023/05/31 00:27:41;;;;;;;18.23;10.82;;;;;;;-143.21;76.86;71887.78;4974803;28;20668;-76
2023/05/31 00:30:08;;;;;;;23.90;10.02;;;;;;;-143.21;76.84;71881.81;4974668;28;20581;-76
2023/05/31 00:32:37;;;;;;;13.82;8.90;;;;;;;-143.21;76.27;71873.88;4975075;28;20212;-76
2023/05/31 00:35:04;;;;;;;12.50;7.00;;;;;;;-143.21;76.22;71862.00;4974996;28;20848;-76
2023/05/31 00:37:36;;;;;;;11.68;6.43;;;;;;;-143.21;75.91;71865.97;4975164;28;20196;-76
2023/05/31 00:40:03;;;;;;;9.00;6.82;;;;;;;-143.21;76.23;71865.97;4974596;28;20680;-76
2023/05/31 00:42:30;;;;;;;8.57;6.20;;;;;;;-143.21;76.71;71873.88;4975166;28;20645;-76
2023/05/31 00:44:57;;;;;;;12.50;6.93;;;;;;;-143.21;76.93;71871.91;4974158;28;20229;-75
2023/05/31 00:47:25;;;;;;;13.88;6.97;;;;;;;-143.21;76.93;71867.94;4974677;28;20281;-76
2023/05/31 00:49:54;;;;;;;8.13;6.22;;;;;;;-143.21;76.67;71865.97;4974772;28;20660;-76
2023/05/31 00:52:21;;;;;;;9.68;6.82;;;;;;;-143.21;76.55;71865.97;4973894;28;20209;-76
2023/05/31 00:54:48;;;;;;;10.00;6.90;;;;;;;-143.21;76.88;71865.97;4974012;28;20555;-77
2023/05/31 00:57:15;;;;;;;12.50;6.90;;;;;;;-143.21;76.67;71867.94;4974590;28;20204;-76
2023/05/31 00:59:42;;;;;;;11.38;6.43;;;;;;;-143.21;76.44;71865.97;4974374;28;20664;-76
2023/05/31 01:02:10;;;;;;;6.97;5.57;;;;;;;-143.21;76.73;71867.94;4974219;28;20203;-76
2023/05/31 01:04:37;;;;;;;9.00;6.30;;;;;;;-143.21;76.61;71875.88;4973901;28;20212;-76
2023/05/31 01:07:06;;;;;;;7.65;5.78;;;;;;;-143.21;76.82;71873.88;4973964;28;20215;-76
2023/05/31 01:09:34;;;;;;;7.63;6.53;;;;;;;-143.21;77.01;71883.81;4974120;28;20197;-78
2023/05/31 01:12:14;;;;;;;9.60;6.82;;;;;;;-143.21;77.06;71883.81;4973737;28;20208;-78
2023/05/31 01:14:53;;;;;;;7.78;6.00;;;;;;;-143.21;77.45;71883.81;4973750;28;20215;-79
2023/05/31 01:17:29;;;;;;;10.55;6.43;;;;;;;-143.21;77.50;71879.84;4973529;28;20197;-79
2023/05/31 01:19:59;;;;;;;8.40;5.88;;;;;;;-143.21;77.60;71881.81;4969243;28;20205;-78
2023/05/31 01:22:42;;;;;;;9.35;6.47;;;;;;;-143.21;77.62;71881.81;4973989;28;20217;-78
2023/05/31 01:25:26;;;;;;;10.38;6.60;;;;;;;-143.21;77.73;71883.81;4974116;28;20234;-78
2023/05/31 01:27:57;;;;;;;7.87;6.17;;;;;;;-143.21;77.74;71887.78;4974104;28;20208;-78
2023/05/31 01:30:25;;;;;;;13.07;6.97;;;;;;;-143.21;77.62;71883.81;4973129;28;20223;-78
2023/05/31 01:32:53;;;;;;;11.48;6.05;;;;;;;-143.21;77.49;71883.81;4973636;28;20216;-77
2023/05/31 01:35:20;;;;;;;10.60;6.07;;;;;;;-143.21;77.67;71889.75;4973923;28;20558;-77
2023/05/31 01:37:47;;;;;;;9.20;6.23;;;;;;;-143.21;77.61;71883.81;4973479;28;20217;-78
2023/05/31 01:40:16;;;;;;;7.83;6.10;;;;;;;-143.21;77.48;71889.75;4973485;28;20274;-78
2023/05/31 01:42:44;;;;;;;7.90;6.30;;;;;;;-143.21;77.51;71885.78;4973499;28;20244;-78
2023/05/31 01:45:15;;;;;;;10.03;6.87;;;;;;;-143.21;77.40;71887.78;4972960;28;20229;-78
2023/05/31 01:47:45;;;;;;;12.63;7.00;;;;;;;-143.21;77.71;71891.72;4974122;28;20200;-77
2023/05/31 01:50:14;;;;;;;15.10;7.80;;;;;;;-143.21;78.03;71901.66;4974172;28;20200;-78
2023/05/31 01:52:41;;;;;;;14.27;8.50;;;;;;;-143.21;78.27;71901.66;4973446;28;20239;-77
2023/05/31 01:55:09;;;;;;;15.68;8.18;;;;;;;-143.21;78.41;71903.63;4972897;28;20296;-76
2023/05/31 01:57:40;;;;;;;14.65;7.60;;;;;;;-143.21;78.50;71903.63;4973620;28;20594;-76
2023/05/31 02:00:11;;;;;;;12.30;7.35;;;;;;;-143.21;79.02;71899.66;4973837;28;20570;-76
2023/05/31 02:02:42;;;;;;;11.27;7.30;;;;;;;-143.21;79.00;71893.72;4973599;28;20200;-77
2023/05/31 02:05:12;;;;;;;11.23;7.05;;;;;;;-143.21;79.12;71895.69;4973196;28;20228;-77
2023/05/31 02:07:40;;;;;;;8.35;6.43;;;;;;;-143.21;79.01;71903.63;4973151;28;20199;-77
2023/05/31 02:10:08;;;;;;;12.90;6.22;;;;;;;-143.21;78.87;71901.66;4972650;28;20204;-78
2023/05/31 02:12:36;;;;;;;10.60;6.63;;;;;;;-143.21;78.76;71895.69;4973107;28;20579;-78
2023/05/31 02:15:03;;;;;;;7.60;6.00;;;;;;;-143.21;78.71;71895.69;4973063;28;20201;-78
2023/05/31 02:17:32;;;;;;;9.10;6.03;;;;;;;-143.21;78.50;71901.66;4973893;28;20192;-78
2023/05/31 02:20:02;;;;;;;9.27;6.40;;;;;;;-143.21;78.76;71907.59;4972468;28;20239;-77
2023/05/31 02:22:29;;;;;;;9.03;6.33;;;;;;;-143.21;78.77;71911.56;4972939;28;20295;-77
2023/05/31 02:24:56;;;;;;;9.25;6.28;;;;;;;-143.21;79.16;71913.53;4972658;28;20574;-78
2023/05/31 02:27:23;;;;;;;11.27;6.28;;;;;;;-143.21;78.62;71907.59;4973075;28;20205;-78
2023/05/31 02:29:50;;;;;;;9.85;6.07;;;;;;;-143.21;79.00;71917.50;4972739;28;20208;-78
2023/05/31 02:32:16;;;;;;;8.55;6.10;;;;;;;-143.21;79.37;71925.44;4973149;28;20215;-78
2023/05/31 02:34:45;;;;;;;9.50;6.43;;;;;;;-143.21;79.61;71931.38;4972219;28;20259;-77
2023/05/31 02:37:13;;;;;;;8.25;6.45;;;;;;;-143.21;79.71;71929.41;4973111;28;20220;-77
2023/05/31 02:39:40;;;;;;;8.53;6.40;;;;;;;-143.21;79.90;71923.47;4972868;28;20285;-77
2023/05/31 02:42:08;;;;;;;16.30;6.20;;;;;;;-143.21;79.87;71925.44;4972571;28;20408;-78
2023/05/31 02:44:35;;;;;;;11.57;6.70;;;;;;;-143.21;80.23;71933.38;4972307;28;20240;-77
2023/05/31 02:47:01;;;;;;;9.10;6.43;;;;;;;-143.21;79.72;71925.44;4972516;28;20225;-77
2023/05/31 02:49:28;;;;;;;9.77;6.72;;;;;;;-143.21;79.74;71927.44;4972360;28;20207;-80
2023/05/31 02:51:55;;;;;;;11.93;6.20;;;;;;;-143.21;79.70;71931.38;4972600;28;20209;-78
2023/05/31 02:54:23;;;;;;;10.20;6.20;;;;;;;-143.21;79.92;71933.38;4972992;28;20353;-77
2023/05/31 02:56:50;;;;;;;8.37;6.00;;;;;;;-143.21;79.84;71933.38;4972250;28;20208;-77
2023/05/31 02:59:17;;;;;;;10.43;6.47;;;;;;;-143.21;79.71;71933.38;4972606;28;20722;-77
2023/05/31 03:01:45;;;;;;;9.97;6.67;;;;;;;-143.21;79.78;71935.34;4972154;28;20219;-78
2023/05/31 03:04:11;;;;;;;10.40;6.70;;;;;;;-143.21;79.80;71933.38;4972269;28;20205;-78
2023/05/31 03:06:39;;;;;;;8.73;6.60;;;;;;;-143.21;79.93;71937.34;4972266;28;20670;-77
2023/05/31 03:09:16;;;;;;;11.47;6.90;;;;;;;-143.21;80.08;71941.31;4972502;28;20219;-77
2023/05/31 03:11:44;;;;;;;9.40;7.00;;;;;;;-143.21;79.95;71941.31;4972194;28;20192;-77
2023/05/31 03:14:11;;;;;;;12.75;6.85;;;;;;;-143.21;80.19;71939.31;4971701;28;20216;-77
2023/05/31 03:16:38;;;;;;;8.95;6.85;;;;;;;-143.21;80.50;71941.31;4972203;28;20230;-77
2023/05/31 03:19:05;;;;;;;13.77;6.95;;;;;;;-143.21;80.66;71955.19;4971848;28;20212;-77
2023/05/31 03:21:32;;;;;;;13.87;6.90;;;;;;;-143.21;81.02;71949.25;4972086;28;20201;-77
2023/05/31 03:24:11;;;;;;;14.48;6.75;;;;;;;-143.21;81.00;71947.25;4972227;28;20203;-77
2023/05/31 03:26:38;;;;;;;14.95;8.13;;;;;;;-143.21;80.71;71945.28;4971466;28;20244;-77
2023/05/31 03:29:07;;;;;;;13.55;7.20;;;;;;;-143.21;80.64;71949.25;4971010;28;20771;-77
2023/05/31 03:31:34;;;;;;;12.82;7.13;;;;;;;-143.21;80.61;71943.28;4971596;28;20300;-78
2023/05/31 03:34:01;;;;;;;15.40;7.55;;;;;;;-143.21;80.57;71943.28;4971795;28;20332;-78
2023/05/31 03:36:27;;;;;;;13.25;7.57;;;;;;;-143.21;80.21;71943.28;4972023;28;20223;-78
2023/05/31 03:39:09;;;;;;;10.82;7.57;;;;;;;-143.21;80.13;71945.28;4972070;28;20563;-78
2023/05/31 03:41:37;;;;;;;17.10;7.35;;;;;;;-143.21;80.40;71943.28;4971252;28;20292;-78
2023/05/31 03:44:18;;;;;;;25.13;8.15;;;;;;;-143.21;80.09;71943.28;4971340;28;20200;-78
2023/05/31 03:46:44;;;;;;;12.73;7.07;;;;;;;-143.21;79.92;71941.31;4971252;28;20236;-77
2023/05/31 03:49:11;;;;;;;11.67;7.50;;;;;;;-143.21;80.06;71947.25;4970984;28;20204;-79
2023/05/31 03:51:38;;;;;;;15.50;7.18;;;;;;;-143.21;80.39;71947.25;4971467;28;20240;-79
2023/05/31 03:54:05;;;;;;;12.97;7.00;;;;;;;-143.21;80.25;71951.22;4972987;28;20643;-79
2023/05/31 03:56:32;;;;;;;14.40;7.03;;;;;;;-143.21;80.42;71953.19;4974873;28;20195;-79
2023/05/31 03:58:59;;;;;;;12.00;7.57;;;;;;;-143.21;80.48;71951.22;4975292;28;20212;-79
2023/05/31 04:01:28;;;;;;;12.07;7.38;;;;;;;-143.21;80.31;71945.28;4975329;28;20671;-78
2023/05/31 04:03:54;;;;;;;19.67;7.88;;;;;;;-143.21;80.39;71949.25;4975295;28;20205;-78
2023/05/31 04:06:22;;;;;;;13.97;7.97;;;;;;;-143.21;80.17;71939.31;4975613;28;20252;-79
2023/05/31 04:08:49;;;;;;;23.37;8.53;;;;;;;-143.21;80.21;71945.28;4975066;28;20228;-81
2023/05/31 04:11:16;;;;;;;13.15;8.23;;;;;;;-143.21;80.68;71941.31;4975264;28;20541;-79
2023/05/31 04:13:43;;;;;;;16.03;8.47;;;;;;;-143.21;80.27;71937.34;4974966;28;20653;-79
2023/05/31 04:16:09;;;;;;;20.23;8.88;;;;;;;-143.21;80.26;71939.31;4974969;28;20205;-79
2023/05/31 04:18:37;;;;;;;15.63;8.93;;;;;;;-143.21;80.31;71933.38;4975226;28;20296;-79
2023/05/31 04:21:05;;;;;;;20.30;8.75;;;;;;;-143.21;80.39;71933.38;4971610;28;20197;-79
2023/05/31 04:23:31;;;;;;;14.65;8.63;;;;;;;-143.21;80.60;71935.34;4972736;28;20209;-80
2023/05/31 04:26:00;;;;;;;14.85;9.00;;;;;;;-143.21;80.67;71931.38;4975058;28;20707;-79
2023/05/31 04:28:29;;;;;;;18.25;9.82;;;;;;;-143.21;80.17;71935.34;4976365;28;20228;-77
2023/05/31 04:30:56;;;;;;;22.73;9.18;;;;;;;-143.21;79.80;71929.41;4975372;28;20239;-78
2023/05/31 04:33:23;;;;;;;16.23;8.65;;;;;;;-143.21;80.25;71939.31;4975664;28;20237;-79
2023/05/31 04:35:51;;;;;;;18.63;8.43;;;;;;;-143.21;80.11;71941.31;4975390;28;20204;-78
2023/05/31 04:38:18;;;;;;;23.73;10.45;;;;;;;-143.21;79.98;71937.34;4974634;28;20207;-78
2023/05/31 04:40:50;;;;;;;18.92;8.30;;;;;;;-143.21;80.01;71937.34;4974620;28;20213;-78
2023/05/31 04:43:17;;;;;;;17.38;8.50;;;;;;;-143.21;80.03;71939.31;4974245;28;20644;-77
2023/05/31 04:45:44;;;;;;;15.77;9.05;;;;;;;-143.21;79.71;71931.38;4973753;28;20200;-78
2023/05/31 04:48:11;;;;;;;16.27;9.77;;;;;;;-143.21;79.01;71935.34;4974226;28;20209;-79
2023/05/31 04:50:38;;;;;;;21.77;10.45;;;;;;;-143.21;78.95;71937.34;4974659;28;20281;-80
2023/05/31 04:53:07;;;;;;;19.80;9.23;;;;;;;-143.21;79.03;71943.28;4974951;28;20310;-80
2023/05/31 04:55:33;;;;;;;18.13;9.98;;;;;;;-143.21;79.63;71939.31;4975030;28;20193;-80
2023/05/31 04:58:00;;;;;;;20.88;9.70;;;;;;;-143.21;79.73;71933.38;4974682;28;20680;-80
2023/05/31 05:00:27;;;;;;;15.95;9.30;;;;;;;-143.21;79.47;71925.44;4974421;28;20204;-83
2023/05/31 05:02:56;;;;;;;15.88;8.60;;;;;;;-143.21;78.76;71921.47;4965002;28;20650;-82
2023/05/31 05:05:23;;;;;;;16.02;9.23;;;;;;;-143.21;78.32;71919.50;4955821;28;20665;-80
2023/05/31 05:07:50;;;;;;;15.50;9.80;;;;;;;-143.21;78.15;71915.53;4969478;28;20700;-81
2023/05/31 05:10:18;;;;;;;18.15;10.00;;;;;;;-143.21;77.83;71905.63;4973792;28;20681;-81
2023/05/31 05:12:45;;;;;;;19.23;10.43;;;;;;;-143.21;77.56;71905.63;4968465;28;20588;-80
2023/05/31 05:15:12;;;;;;;21.42;10.00;;;;;;;-143.21;77.43;71911.56;4954950;29;20755;-80
2023/05/31 05:17:38;;;;;;;15.75;9.45;;;;;;;-143.21;77.65;71915.53;4955080;29;20411;-84
2023/05/31 05:20:08;;;;;;;18.55;9.80;;;;;;;-143.21;77.53;71913.53;4973234;28;20208;-81
2023/05/31 05:22:35;;;;;;;20.80;10.52;;;;;;;-143.21;77.64;71911.56;4974136;28;20213;-80
2023/05/31 05:25:02;;;;;;;16.23;10.15;;;;;;;-143.21;77.81;71909.56;4973516;28;20296;-80
2023/05/31 05:27:30;;;;;;;18.52;9.75;;;;;;;-143.21;77.61;71901.66;4973647;28;20230;-80
2023/05/31 05:29:57;;;;;;;15.75;9.20;;;;;;;-143.21;77.42;71889.75;4972865;28;20653;-80
2023/05/31 05:32:24;;;;;;;16.35;9.73;;;;;;;-143.21;76.54;71887.78;4973234;28;20628;-80
2023/05/31 05:34:51;;;;;;;17.67;9.35;;;;;;;-143.21;76.60;71883.81;4973253;28;20232;-80
2023/05/31 05:37:18;;;;;;;15.48;9.85;;;;;;;-143.21;76.72;71881.81;4974186;28;20205;-81
2023/05/31 05:39:47;;;;;;;14.48;8.80;;;;;;;-143.21;76.38;71869.91;4974234;28;20192;-80
2023/05/31 05:42:14;;;;;;;14.90;9.18;;;;;;;-143.21;75.81;71862.00;4973857;28;20209;-80
2023/05/31 05:44:42;;;;;;;18.17;10.18;;;;;;;-143.21;74.41;71860.00;4973601;28;20321;-80
2023/05/31 05:47:09;;;;;;;18.05;9.80;;;;;;;-143.21;74.43;71873.88;4974073;28;20231;-80
2023/05/31 05:49:36;;;;;;;15.90;10.30;;;;;;;-143.21;75.04;71879.84;4974753;28;20208;-81
2023/05/31 05:52:03;;;;;;;22.90;11.20;;;;;;;-143.21;75.30;71889.75;4974306;28;20204;-80
2023/05/31 05:54:30;;;;;;;17.10;10.15;;;;;;;-143.21;75.17;71905.63;4973735;28;20216;-80
2023/05/31 05:56:57;;;;;;;23.30;11.07;;;;;;;-143.21;75.82;71903.63;4973467;28;20252;-79
2023/05/31 05:59:24;;;;;;;20.85;10.57;;;;;;;-143.21;75.61;71899.66;4973189;28;20197;-79
2023/05/31 06:01:52;;;;;;;20.02;10.10;;;;;;;-143.21;76.02;71897.69;4973640;28;20209;-79
2023/05/31 06:04:19;;;;;;;19.05;11.25;;;;;;;-143.21;75.95;71889.75;4973124;28;20558;-81
2023/05/31 06:06:47;;;;;;;19.23;10.75;;;;;;;-143.21;76.06;71879.84;4973142;28;20236;-80
2023/05/31 06:09:16;;;;;;;14.20;9.90;;;;;;;-143.21;75.93;71867.94;4973233;28;20647;-79
2023/05/31 06:11:43;;;;;;;18.88;10.25;;;;;;;-143.21;75.68;71862.00;4973726;28;20205;-77
2023/05/31 06:14:09;;;;;;;14.48;10.20;;;;;;;-143.21;75.56;71856.03;4972839;28;20284;-78
2023/05/31 06:16:36;;;;;;;17.15;10.52;;;;;;;-143.21;75.34;71838.19;4972891;28;20231;-79
2023/05/31 06:19:04;;;;;;;17.15;10.55;;;;;;;-143.21;75.04;71832.25;4973476;28;20607;-80
2023/05/31 06:21:31;;;;;;;15.43;10.40;;;;;;;-143.21;74.12;71824.31;4973292;28;20201;-80
2023/05/31 06:23:58;;;;;;;25.27;10.90;;;;;;;-143.21;73.65;71812.41;4973369;28;20212;-80
2023/05/31 06:26:25;;;;;;;22.23;9.93;;;;;;;-143.21;73.31;71804.47;4965281;28;20213;-80
2023/05/31 06:28:52;;;;;;;19.60;11.27;;;;;;;-143.21;73.02;71798.53;4970099;28;20204;-80
2023/05/31 06:31:19;;;;;;;17.42;11.00;;;;;;;-143.21;73.28;71800.53;4973121;28;20655;-80
2023/05/31 06:33:46;;;;;;;20.02;11.15;;;;;;;-143.21;73.15;71800.53;4972977;28;20267;-80
2023/05/31 06:36:14;;;;;;;21.20;10.00;;;;;;;-143.21;72.29;71796.56;4972931;28;20279;-80
2023/05/31 06:38:41;;;;;;;21.35;10.93;;;;;;;-143.21;72.41;71804.47;4972887;28;20208;-80
2023/05/31 06:41:08;;;;;;;18.20;10.25;;;;;;;-143.21;71.96;71796.56;4970870;28;20201;-80
2023/05/31 06:43:34;;;;;;;18.42;11.35;;;;;;;-143.21;71.97;71800.53;4957970;28;20207;-80
2023/05/31 06:46:01;;;;;;;17.83;11.15;;;;;;;-143.21;72.52;71794.56;4972953;28;20281;-80
2023/05/31 06:48:28;;;;;;;19.00;11.68;;;;;;;-143.21;72.57;71774.75;4973121;28;20220;-80
2023/05/31 06:50:55;;;;;;;19.48;11.48;;;;;;;-143.21;72.66;71768.78;4972423;28;20271;-80
2023/05/31 06:53:23;;;;;;;18.83;11.18;;;;;;;-143.21;72.92;71756.91;4972601;28;20668;-79
2023/05/31 06:55:50;;;;;;;22.58;10.93;;;;;;;-143.21;72.14;71745.00;4972248;28;20204;-80
2023/05/31 06:58:17;;;;;;;18.13;9.95;;;;;;;-143.21;71.92;71739.06;4972658;28;20269;-80
2023/05/31 07:00:50;;;;;;;15.85;11.18;;;;;;;-143.21;71.33;71727.16;4973035;28;20645;-81
2023/05/31 07:03:17;;;;;;;16.65;9.85;;;;;;;-143.21;71.33;71717.25;4972971;28;20545;-80
2023/05/31 07:05:44;;;;;;;19.55;10.85;;;;;;;-143.21;69.68;71713.28;4972673;28;20271;-80
2023/05/31 07:08:11;;;;;;;16.95;10.13;;;;;;;-143.21;69.58;71703.34;4972321;28;20229;-80
2023/05/31 07:10:39;;;;;;;17.58;9.45;;;;;;;-143.21;69.08;71695.44;4971494;28;20688;-80
2023/05/31 07:13:06;;;;;;;20.30;9.02;;;;;;;-143.21;69.35;71687.50;4959841;28;20327;-80
2023/05/31 07:15:34;;;;;;;16.25;8.38;;;;;;;-143.21;69.31;71683.53;4954821;28;20224;-80
2023/05/31 07:18:00;;;;;;;12.18;7.95;;;;;;;-143.21;68.82;71677.59;4969996;28;20196;-81
2023/05/31 07:20:27;;;;;;;15.88;8.63;;;;;;;-143.21;67.66;71663.72;4971780;28;20204;-79
2023/05/31 07:22:54;;;;;;;12.80;7.90;;;;;;;-143.21;67.87;71667.66;4971387;28;20204;-80
2023/05/31 07:25:21;;;;;;;11.07;8.35;;;;;;;-143.21;67.85;71653.78;4971959;28;20217;-80
2023/05/31 07:27:49;;;;;;;12.95;7.97;;;;;;;-143.21;67.64;71647.84;4971944;28;20220;-80
2023/05/31 07:30:17;;;;;;;11.57;8.68;;;;;;;-143.21;67.31;71624.06;4972077;28;20193;-81
2023/05/31 07:32:43;;;;;;;12.88;8.38;;;;;;;-143.21;66.20;71620.09;4971795;28;20197;-80
2023/05/31 07:35:10;;;;;;;15.15;8.68;;;;;;;-143.21;65.63;71604.22;4972231;28;20196;-80
2023/05/31 07:37:37;;;;;;;12.10;7.97;;;;;;;-143.21;65.33;71594.31;4972510;28;20255;-80
2023/05/31 07:40:06;;;;;;;13.48;8.43;;;;;;;-143.21;64.88;71586.38;4972066;28;20201;-79
2023/05/31 07:42:33;;;;;;;16.90;8.30;;;;;;;-143.21;64.73;71578.44;4972195;28;20678;-79
2023/05/31 07:45:01;;;;;;;12.13;7.80;;;;;;;-143.21;64.36;71570.53;4972130;28;20212;-80
2023/05/31 07:47:28;;;;;;;10.88;6.82;;;;;;;-143.21;63.85;71574.47;4965989;28;20578;-80
2023/05/31 07:49:55;;;;;;;10.25;7.28;;;;;;;-143.21;63.40;71564.56;4958813;28;20287;-80
2023/05/31 07:52:22;;;;;;;14.55;7.28;;;;;;;-143.21;63.59;71544.75;4964494;28;20292;-80
2023/05/31 07:54:49;;;;;;;15.38;7.90;;;;;;;-143.21;63.95;71548.72;4971621;28;20204;-81
2023/05/31 07:57:17;;;;;;;10.15;8.00;;;;;;;-143.21;64.03;71546.72;4972057;28;20279;-82
2023/05/31 07:59:44;;;;;;;14.07;7.90;;;;;;;-143.21;63.70;71536.81;4966952;28;20205;-81
2023/05/31 08:02:14;;;;;;;12.77;8.50;;;;;;;-143.21;63.70;71518.97;4971719;28;20197;-81
2023/05/31 08:04:41;;;;;;;13.23;7.95;;;;;;;-143.21;63.36;71515.00;4970867;28;20259;-81
2023/05/31 08:07:08;;;;;;;10.32;7.20;;;;;;;-143.21;63.07;71513.03;4966342;28;20312;-81
2023/05/31 08:09:35;;;;;;;10.27;7.13;;;;;;;-143.21;62.49;71495.19;4971843;28;20193;-80
2023/05/31 08:12:02;;;;;;;12.30;7.20;;;;;;;-143.21;61.89;71495.19;4970902;28;20240;-81
2023/05/31 08:14:29;;;;;;;13.38;7.53;;;;;;;-143.21;61.71;71483.28;4962226;28;20197;-82
2023/05/31 08:16:56;;;;;;;10.68;7.55;;;;;;;-143.21;61.64;71475.34;4972046;28;20204;-81
2023/05/31 08:19:25;;;;;;;14.02;8.02;;;;;;;-143.21;61.67;71469.41;4968667;28;20203;-82
2023/05/31 08:21:52;;;;;;;13.10;7.30;;;;;;;-143.21;61.64;71465.44;4970028;28;20204;-81
2023/05/31 08:24:19;;;;;;;12.40;7.75;;;;;;;-143.21;61.81;71471.38;4971809;28;20640;-80
2023/05/31 08:26:46;;;;;;;17.85;8.40;;;;;;;-143.21;61.96;71447.59;4971879;28;20641;-81
2023/05/31 08:29:14;;;;;;;15.75;7.38;;;;;;;-143.21;61.36;71433.72;4966221;28;20204;-81
2023/05/31 08:31:40;;;;;;;11.30;8.02;;;;;;;-143.21;61.52;71423.78;4958580;28;20213;-80
2023/05/31 08:34:07;;;;;;;11.63;8.05;;;;;;;-143.21;60.39;71405.94;4966005;28;20675;-81
2023/05/31 08:36:36;;;;;;;14.15;8.07;;;;;;;-143.21;60.04;71431.72;4970899;28;20228;-82
2023/05/31 08:39:03;;;;;;;14.30;8.35;;;;;;;-143.21;60.13;71419.84;4970988;28;20208;-81
2023/05/31 08:41:35;;;;;;;14.27;7.95;;;;;;;-143.21;60.13;71403.97;4974519;28;20215;-81
2023/05/31 08:44:10;;;;;;;13.65;8.05;;;;;;;-143.21;60.20;71394.06;4975388;28;20337;-81
2023/05/31 08:46:37;;;;;;;15.38;9.85;;;;;;;-143.21;60.36;71380.19;4970362;28;20231;-81
2023/05/31 08:49:10;;;;;;;15.10;8.40;;;;;;;-143.21;59.75;71368.28;4969318;28;20232;-81
2023/05/31 08:51:40;;;;;;;15.25;9.27;;;;;;;-143.21;59.95;71372.25;4976015;28;20200;-81
2023/05/31 08:54:09;;;;;;;10.32;8.20;;;;;;;-143.21;58.74;71362.34;4975604;28;20209;-82
2023/05/31 08:56:38;;;;;;;10.60;7.57;;;;;;;-143.21;59.09;71358.38;4975570;28;20211;-82
2023/05/31 08:59:08;;;;;;;9.55;7.07;;;;;;;-143.21;59.16;71342.50;4970068;28;20228;-82
2023/05/31 09:01:36;;;;;;;12.93;7.40;;;;;;;-143.21;59.00;71330.63;4971453;28;20204;-81
2023/05/31 09:04:05;;;;;;;10.38;7.32;;;;;;;-143.21;58.96;71332.59;4959237;28;20201;-82
2023/05/31 09:06:31;;;;;;;8.10;6.75;;;;;;;-143.21;58.45;71326.66;4961411;28;20572;-82
2023/05/31 09:09:00;;;;;;;13.07;6.70;;;;;;;-143.21;58.37;71322.69;4974192;28;20787;-81
2023/05/31 09:11:27;;;;;;;11.73;6.32;;;;;;;-143.21;58.31;71324.66;4974907;28;20243;-81
2023/05/31 09:13:54;;;;;;;11.77;6.25;;;;;;;-143.21;55.88;71326.66;4975119;28;20205;-82
2023/05/31 09:16:23;;;;;;;11.35;6.90;;;;;;;-143.21;57.33;71330.63;4974978;28;20201;-82
2023/05/31 09:19:00;;;;;;;10.95;6.43;;;;;;;-143.21;57.17;71308.81;4972403;28;20205;-82
2023/05/31 09:21:26;;;;;;;9.57;6.50;;;;;;;-143.21;57.14;71306.81;4974444;28;20180;-82
2023/05/31 09:23:54;;;;;;;10.80;6.70;;;;;;;-143.21;58.08;71279.06;4974893;28;20204;-82
2023/05/31 09:26:23;;;;;;;8.98;6.40;;;;;;;-143.21;57.69;71253.28;4956099;28;20692;-82
2023/05/31 09:28:51;;;;;;;11.80;7.57;;;;;;;-143.21;57.06;71235.44;4956982;28;20230;-82
2023/05/31 09:31:19;;;;;;;13.60;5.85;;;;;;;-143.21;56.14;71229.50;4971520;28;20653;-81
2023/05/31 09:33:48;;;;;;;7.20;4.85;;;;;;;-143.21;56.19;71217.59;4974513;28;20233;-81
2023/05/31 09:36:23;;;;;;;9.63;6.18;;;;;;;-143.21;54.35;71199.78;4974286;28;20204;-81
2023/05/31 09:38:50;;;;;;;11.88;5.40;;;;;;;-143.21;54.80;71185.88;4974569;28;20643;-83
2023/05/31 09:41:19;;;;;;;9.75;6.00;;;;;;;-143.21;54.91;71170.03;4974496;28;20212;-82
2023/05/31 09:43:49;;;;;;;13.38;6.20;;;;;;;-143.21;55.06;71156.16;4973998;28;20193;-82
2023/05/31 09:46:17;;;;;;;6.85;5.82;;;;;;;-143.21;54.41;71146.25;4974155;28;20683;-82
2023/05/31 09:48:45;;;;;;;9.38;5.82;;;;;;;-143.21;53.30;71150.22;4974346;28;20267;-82
2023/05/31 09:51:13;;;;;;;9.77;5.90;;;;;;;-143.21;53.23;71154.16;4973513;28;20197;-81
2023/05/31 09:53:45;;;;;;;6.25;5.50;;;;;;;-143.21;53.50;71166.06;4974000;28;20219;-82
2023/05/31 09:56:18;;;;;;;8.88;5.25;;;;;;;-143.21;54.48;71179.94;4972669;28;20201;-81
2023/05/31 09:58:46;;;;;;;7.50;5.43;;;;;;;-143.21;54.16;71185.88;4973491;28;20836;-81
2023/05/31 10:01:16;;;;;;;9.43;5.90;;;;;;;-143.21;54.11;71174.00;4973867;28;20205;-80
2023/05/31 10:03:44;;;;;;;10.38;5.63;;;;;;;-143.21;54.68;71160.13;4974170;28;21030;-80
2023/05/31 10:06:11;;;;;;;10.10;5.30;;;;;;;-143.21;53.14;71138.31;4973928;28;20212;-81
2023/05/31 10:08:38;;;;;;;5.13;4.38;;;;;;;-143.21;53.00;71126.41;4970141;28;20236;-81
2023/05/31 10:11:06;;;;;;;7.93;5.30;;;;;;;-143.21;53.20;71098.66;4970522;28;20208;-81
2023/05/31 10:13:33;;;;;;;9.35;5.68;;;;;;;-143.21;52.25;71096.69;4963976;28;20598;-80
2023/05/31 10:16:08;;;;;;;6.82;5.38;;;;;;;-143.21;52.29;71098.66;4962536;28;20196;-82
2023/05/31 10:18:39;;;;;;;10.43;4.78;;;;;;;-143.21;52.36;71086.75;4973313;28;20207;-82
2023/05/31 10:21:11;;;;;;;6.65;5.20;;;;;;;-143.21;51.86;71076.84;4972891;28;20197;-82
2023/05/31 10:23:44;;;;;;;9.27;5.10;;;;;;;-143.21;51.25;71084.78;4969090;28;20213;-81
2023/05/31 10:26:15;;;;;;;10.38;5.30;;;;;;;-143.21;52.37;71090.72;4973956;28;20208;-80
2023/05/31 10:28:52;;;;;;;6.10;4.82;;;;;;;-143.21;52.58;71090.72;4966355;28;20209;-81
2023/05/31 10:31:23;;;;;;;7.25;5.70;;;;;;;-143.21;52.47;71094.69;4964806;28;20209;-81
2023/05/31 10:33:58;;;;;;;7.97;5.90;;;;;;;-143.21;53.04;71080.81;4959081;28;20221;-80
2023/05/31 10:36:25;;;;;;;8.27;5.38;;;;;;;-143.21;52.51;71076.84;4973663;28;20208;-81
2023/05/31 10:39:00;;;;;;;13.25;7.05;;;;;;;-143.21;52.49;71074.88;4972661;28;20220;-81
2023/05/31 10:41:35;;;;;;;9.07;5.93;;;;;;;-143.21;52.20;71070.91;4961239;28;20308;-80
2023/05/31 10:44:10;;;;;;;7.93;5.75;;;;;;;-143.21;53.01;71076.84;4956548;28;20244;-81
2023/05/31 10:46:41;;;;;;;9.80;5.68;;;;;;;-143.21;52.78;71072.88;4965919;28;20223;-80
2023/05/31 10:49:13;;;;;;;11.77;5.80;;;;;;;-143.21;52.79;71078.84;4964961;28;20216;-81
2023/05/31 10:51:42;;;;;;;8.52;5.45;;;;;;;-143.21;52.24;71090.72;4954062;29;20596;-81
2023/05/31 10:54:09;;;;;;;7.70;4.80;;;;;;;-143.21;51.49;71100.66;4972730;28;20212;-82
2023/05/31 10:56:38;;;;;;;8.13;4.50;;;;;;;-143.21;51.23;71104.59;4973325;28;20231;-80
2023/05/31 10:59:11;;;;;;;6.75;4.13;;;;;;;-143.21;51.19;71110.56;4973296;28;20192;-81
2023/05/31 11:01:40;;;;;;;4.82;3.90;;;;;;;-143.21;49.47;71096.69;4954255;29;20186;-82
2023/05/31 11:04:21;;;;;;;6.07;3.97;;;;;;;-143.21;50.50;71094.69;4970249;28;20252;-82
2023/05/31 11:06:52;;;;;;;7.93;4.03;;;;;;;-143.21;53.70;71080.81;4973100;28;20602;-81
2023/05/31 11:09:19;;;;;;;8.02;4.07;;;;;;;-143.21;54.56;71076.84;4967020;28;20221;-82
2023/05/31 11:11:47;;;;;;;6.15;4.20;;;;;;;-143.21;56.07;71084.78;4970856;28;20292;-82
2023/05/31 11:14:29;;;;;;;11.63;4.85;;;;;;;-143.21;56.27;71072.88;4962268;28;20205;-81